Salvo, North Carolina
Current Conditions -  °F | °C
As of 1:51 AM on Saturday 29 Nov 2014 (Local Time) from KHSE Reporting Station
Clear Clear  
Wind Chill: 34°   Ceiling: Unl
Heat Index: 34°   Visibility: 10mi
Dew Point: 27°   Wind: 3mph
Humidity: 75%   Direction: 10°N
Pressure: 30.32"   Gusts: NA
Location:  35.54°N, 75.47°W
Report Text: KHSE 290651Z AUTO 01003KT 10SM CLR 01/M03 A3032 RMK AO2 SLP266 T00111028 TSNO
Loading
Personal Weather Stations






























Interactive Weather Map New forecast layout! Learn more

10-Day Weather Forecast

Advertisements
Track Severe Weather on mobile